createdAt,value
2022-09-18T00:00:50.348Z,98535.23
2022-09-18T00:06:14.857Z,98531.95
2022-09-18T00:11:20.157Z,98534.44
2022-09-18T00:16:25.850Z,98529.48
2022-09-18T00:21:32.060Z,98526.39
2022-09-18T00:26:35.882Z,98519.10
2022-09-18T00:31:39.622Z,98517.26
2022-09-18T00:36:44.084Z,98522.18
2022-09-18T00:41:47.251Z,98523.19
2022-09-18T00:46:51.329Z,98526.77
2022-09-18T00:51:56.018Z,98526.66
2022-09-18T00:57:02.882Z,98525.32
2022-09-18T01:02:06.683Z,98520.07
2022-09-18T01:07:29.325Z,98519.37
2022-09-18T01:12:46.026Z,98512.25
2022-09-18T01:18:07.667Z,98513.66
2022-09-18T01:23:21.933Z,98513.02
2022-09-18T01:28:34.279Z,98516.51
2022-09-18T01:33:44.733Z,98516.16
2022-09-18T01:39:05.145Z,98518.92
2022-09-18T01:44:16.854Z,98517.46
2022-09-18T01:49:26.511Z,98519.56
2022-09-18T01:54:35.966Z,98525.73
2022-09-18T01:59:48.290Z,98516.56
2022-09-18T02:04:55.797Z,98518.73
2022-09-18T02:09:59.522Z,98519.98
2022-09-18T02:15:10.610Z,98518.73
2022-09-18T02:20:21.403Z,98515.16
2022-09-18T02:25:32.081Z,98516.02
2022-09-18T02:30:39.409Z,98514.77
2022-09-18T02:35:51.092Z,98509.83
2022-09-18T02:41:11.096Z,98506.25
2022-09-18T02:46:29.208Z,98500.05
2022-09-18T02:51:45.774Z,98498.75
2022-09-18T02:56:59.836Z,98495.15
2022-09-18T03:02:03.975Z,98495.66
2022-09-18T03:07:07.794Z,98500.79
2022-09-18T03:12:12.101Z,98500.80
2022-09-18T03:17:15.333Z,98502.70
2022-09-18T03:22:18.644Z,98506.80
2022-09-18T03:27:21.851Z,98512.60
2022-09-18T03:32:25.161Z,98518.05
2022-09-18T03:37:28.371Z,98526.11
2022-09-18T03:42:31.708Z,98528.77
2022-09-18T03:47:36.606Z,98531.10
2022-09-18T03:52:40.247Z,98535.61
2022-09-18T03:57:46.017Z,98533.86
2022-09-18T04:02:49.287Z,98529.66
2022-09-18T04:07:53.251Z,98525.77
2022-09-18T04:12:56.877Z,98525.06
2022-09-18T04:18:00.090Z,98522.95
2022-09-18T04:23:03.699Z,98521.95
2022-09-18T04:28:07.006Z,98516.31
2022-09-18T04:33:10.216Z,98514.60
2022-09-18T04:38:13.629Z,98509.80
2022-09-18T04:43:16.836Z,98515.14
2022-09-18T04:48:21.345Z,98516.70
2022-09-18T04:53:24.694Z,98518.75
2022-09-18T04:58:28.002Z,98521.15
2022-09-18T05:03:31.511Z,98521.23
2022-09-18T05:08:35.029Z,98520.99
2022-09-18T05:13:40.341Z,98519.08
2022-09-18T05:18:43.597Z,98529.48
2022-09-18T05:23:47.316Z,98527.92
2022-09-18T05:28:51.138Z,98536.03
2022-09-18T05:33:54.656Z,98537.84
2022-09-18T05:38:57.864Z,98538.95
2022-09-18T05:44:01.174Z,98531.73
2022-09-18T05:49:06.744Z,98524.15
2022-09-18T05:54:10.048Z,98527.41
2022-09-18T05:59:14.062Z,98520.25
2022-09-18T06:04:17.385Z,98521.84
2022-09-18T06:09:20.706Z,98525.92
2022-09-18T06:14:24.419Z,98529.14
2022-09-18T06:19:27.728Z,98530.03
2022-09-18T06:24:31.039Z,98538.73
2022-09-18T06:29:34.557Z,98546.30
2022-09-18T06:34:38.864Z,98546.92
2022-09-18T06:39:42.813Z,98548.27
2022-09-18T06:44:46.331Z,98548.38
2022-09-18T06:49:50.049Z,98546.50
2022-09-18T06:54:53.359Z,98545.50
2022-09-18T06:59:56.777Z,98552.48
2022-09-18T07:05:01.004Z,98553.05
2022-09-18T07:10:09.018Z,98553.52
2022-09-18T07:15:12.738Z,98555.58
2022-09-18T07:20:16.025Z,98558.62
2022-09-18T07:25:19.240Z,98557.40
2022-09-18T07:30:22.613Z,98556.71
2022-09-18T07:35:25.993Z,98555.73
2022-09-18T07:40:30.033Z,98552.36
2022-09-18T07:45:33.430Z,98552.89
2022-09-18T07:50:37.254Z,98552.05
2022-09-18T07:55:43.227Z,98547.70
2022-09-18T08:00:46.543Z,98546.27
2022-09-18T08:05:49.853Z,98546.50
2022-09-18T08:10:56.335Z,98545.71
2022-09-18T08:16:00.018Z,98554.88
2022-09-18T08:21:10.376Z,98557.21
2022-09-18T08:26:20.036Z,98557.00
2022-09-18T08:31:25.913Z,98562.05
2022-09-18T08:36:30.853Z,98563.53
2022-09-18T08:41:37.394Z,98565.99
2022-09-18T08:47:05.345Z,98569.11
2022-09-18T08:52:23.849Z,98567.83
2022-09-18T08:57:30.335Z,98567.27
2022-09-18T09:02:48.698Z,98565.95
2022-09-18T09:08:28.875Z,98561.92
2022-09-18T09:13:44.473Z,98563.15
2022-09-18T09:18:55.874Z,98562.77
2022-09-18T09:24:31.543Z,98568.40
2022-09-18T09:29:37.848Z,98576.33
2022-09-18T09:35:10.631Z,98576.02
2022-09-18T09:40:17.031Z,98589.45
2022-09-18T09:45:45.099Z,98599.68
2022-09-18T09:50:57.523Z,98598.92
2022-09-18T09:56:29.514Z,98606.15
2022-09-18T10:01:36.547Z,98607.47
2022-09-18T10:06:58.052Z,98608.75
2022-09-18T10:12:09.954Z,98611.78
2022-09-18T10:17:14.492Z,98612.63
2022-09-18T10:22:23.359Z,98620.86
2022-09-18T10:27:26.853Z,98623.48
2022-09-18T10:32:39.615Z,98627.83
2022-09-18T10:37:43.710Z,98628.89
2022-09-18T10:42:55.345Z,98636.48
2022-09-18T10:48:26.480Z,98633.95
2022-09-18T10:53:33.785Z,98634.86
2022-09-18T10:58:37.104Z,98637.98
2022-09-18T11:04:00.066Z,98634.81
2022-09-18T11:09:10.033Z,98645.92
2022-09-18T11:14:25.631Z,98644.47
2022-09-18T11:19:40.484Z,98642.64
2022-09-18T11:24:47.319Z,98640.44
2022-09-18T11:29:50.923Z,98643.79
2022-09-18T11:35:02.327Z,98636.30
2022-09-18T11:40:15.636Z,98638.77
2022-09-18T11:45:43.353Z,98635.57
2022-09-18T11:50:47.177Z,98631.15
2022-09-18T11:56:04.111Z,98628.02
2022-09-18T12:01:31.888Z,98627.18
2022-09-18T12:07:14.522Z,98625.67
2022-09-18T12:12:26.608Z,98626.66
2022-09-18T12:18:05.040Z,98627.40
2022-09-18T12:23:14.450Z,98624.63
2022-09-18T12:28:29.472Z,98624.54
2022-09-18T12:33:42.710Z,98626.55
2022-09-18T12:39:04.912Z,98622.98
2022-09-18T12:44:31.159Z,98618.54
2022-09-18T12:49:56.480Z,98619.48
2022-09-18T12:55:18.220Z,98618.62
2022-09-18T13:00:22.549Z,98623.19
2022-09-18T13:05:42.863Z,98622.45
2022-09-18T13:10:49.368Z,98628.95
2022-09-18T13:15:57.305Z,98631.38
2022-09-18T13:21:05.897Z,98636.73
2022-09-18T13:26:14.960Z,98635.69
2022-09-18T13:31:33.266Z,98639.59
2022-09-18T13:36:38.353Z,98646.88
2022-09-18T13:41:51.850Z,98648.46
2022-09-18T13:47:14.349Z,98648.91
2022-09-18T13:52:32.921Z,98653.13
2022-09-18T13:57:36.123Z,98651.81
2022-09-18T14:02:44.298Z,98650.13
2022-09-18T14:07:57.484Z,98649.52
2022-09-18T14:13:24.651Z,98651.74
2022-09-18T14:18:38.512Z,98646.95
2022-09-18T14:23:47.563Z,98649.63
2022-09-18T14:28:51.784Z,98644.02
2022-09-18T14:33:59.361Z,98645.67
2022-09-18T14:39:02.607Z,98646.40
2022-09-18T14:44:07.454Z,98644.20
2022-09-18T14:49:45.687Z,98644.36
2022-09-18T14:54:50.739Z,98650.75
2022-09-18T14:59:56.992Z,98652.06
2022-09-18T15:05:03.849Z,98658.54
2022-09-18T15:10:09.932Z,98659.58
2022-09-18T15:15:27.844Z,98666.00
2022-09-18T15:20:31.405Z,98671.66
2022-09-18T15:25:44.717Z,98681.55
2022-09-18T15:30:50.502Z,98688.99
2022-09-18T15:35:55.839Z,98685.05
2022-09-18T15:40:59.171Z,98679.33
2022-09-18T15:46:08.820Z,98677.25
2022-09-18T15:51:17.505Z,98668.30
2022-09-18T15:56:23.751Z,98665.61
2022-09-18T16:01:45.929Z,98660.73
2022-09-18T16:06:53.750Z,98664.55
2022-09-18T16:11:57.027Z,98671.86
2022-09-18T16:17:29.423Z,98665.08
2022-09-18T16:22:41.024Z,98666.91
2022-09-18T16:27:47.899Z,98663.61
2022-09-18T16:32:59.010Z,98670.63
2022-09-18T16:38:02.298Z,98675.02
2022-09-18T16:43:05.941Z,98666.17
2022-09-18T16:48:09.256Z,98662.36
2022-09-18T16:53:12.664Z,98663.58
2022-09-18T16:58:20.791Z,98666.23
2022-09-18T17:03:26.687Z,98678.87
2022-09-18T17:08:30.890Z,98680.05
2022-09-18T17:13:33.995Z,98682.84
2022-09-18T17:18:37.216Z,98684.38
2022-09-18T17:23:40.616Z,98683.08
2022-09-18T17:28:44.850Z,98681.20
2022-09-18T17:33:48.058Z,98681.30
2022-09-18T17:38:52.188Z,98676.52
2022-09-18T17:43:55.499Z,98676.11
2022-09-18T17:49:00.093Z,98673.59
2022-09-18T17:54:05.193Z,98667.79
2022-09-18T17:59:11.575Z,98668.09
2022-09-18T18:04:15.092Z,98669.42
2022-09-18T18:09:18.505Z,98670.27
2022-09-18T18:14:25.506Z,98675.52
2022-09-18T18:19:28.819Z,98681.56
2022-09-18T18:24:32.125Z,98686.98
2022-09-18T18:29:35.947Z,98687.94
2022-09-18T18:34:39.260Z,98685.59
2022-09-18T18:39:42.630Z,98692.44
2022-09-18T18:44:46.289Z,98700.03
2022-09-18T18:49:50.112Z,98707.98
2022-09-18T18:54:53.730Z,98706.09
2022-09-18T18:59:57.653Z,98701.91
2022-09-18T19:05:03.730Z,98700.64
2022-09-18T19:10:08.291Z,98694.38
2022-09-18T19:15:11.681Z,98692.48
2022-09-18T19:20:21.704Z,98692.88
2022-09-18T19:25:27.010Z,98690.52
2022-09-18T19:30:30.419Z,98693.48
2022-09-18T19:35:37.416Z,98690.82
2022-09-18T19:40:42.472Z,98692.83
2022-09-18T19:45:48.627Z,98693.67
2022-09-18T19:50:53.256Z,98693.91
2022-09-18T19:55:56.701Z,98690.88
2022-09-18T20:01:01.915Z,98692.23
2022-09-18T20:06:06.627Z,98694.96
2022-09-18T20:11:09.911Z,98694.38
2022-09-18T20:16:13.323Z,98691.88
2022-09-18T20:21:19.078Z,98691.63
2022-09-18T20:26:22.302Z,98692.21
2022-09-18T20:31:25.888Z,98695.36
2022-09-18T20:36:31.074Z,98694.52
2022-09-18T20:41:35.877Z,98692.73
2022-09-18T20:46:39.889Z,98697.31
2022-09-18T20:51:43.361Z,98696.33
2022-09-18T20:56:47.348Z,98697.16
2022-09-18T21:01:52.052Z,98697.73
2022-09-18T21:07:00.361Z,98700.34
2022-09-18T21:12:03.678Z,98698.80
2022-09-18T21:17:08.929Z,98699.25
2022-09-18T21:22:12.241Z,98698.15
2022-09-18T21:27:15.549Z,98701.60
2022-09-18T21:32:19.065Z,98699.65
2022-09-18T21:37:22.274Z,98698.05
2022-09-18T21:42:26.301Z,98698.23
2022-09-18T21:47:30.124Z,98693.73
2022-09-18T21:52:33.379Z,98692.27
2022-09-18T21:57:37.260Z,98690.48
2022-09-18T22:02:41.390Z,98687.52
2022-09-18T22:07:45.007Z,98684.34
2022-09-18T22:12:48.830Z,98685.38
2022-09-18T22:17:52.448Z,98681.69
2022-09-18T22:22:55.862Z,98683.13
2022-09-18T22:27:59.276Z,98687.48
2022-09-18T22:33:03.406Z,98689.27
2022-09-18T22:38:06.616Z,98688.31
2022-09-18T22:43:10.541Z,98690.06
2022-09-18T22:48:13.849Z,98692.80
2022-09-18T22:53:17.471Z,98695.24
2022-09-18T22:58:20.780Z,98690.14
2022-09-18T23:03:23.992Z,98689.64
2022-09-18T23:08:31.453Z,98691.04
2022-09-18T23:13:48.479Z,98690.70
2022-09-18T23:18:54.497Z,98695.00
2022-09-18T23:23:59.760Z,98692.13
2022-09-18T23:29:10.031Z,98696.14
2022-09-18T23:34:17.132Z,98690.27
2022-09-18T23:39:22.764Z,98694.92
2022-09-18T23:44:28.873Z,98692.15
2022-09-18T23:49:32.287Z,98691.55
2022-09-18T23:54:35.494Z,98697.45
2022-09-18T23:59:38.805Z,98690.35
